createdAt,value
2016-08-20T00:00:45.673Z,0
2016-08-20T00:01:57.268Z,0
2016-08-20T00:03:08.827Z,0
2016-08-20T00:04:20.388Z,0
2016-08-20T00:05:31.954Z,0
2016-08-20T00:06:44.237Z,0
2016-08-20T00:07:56.513Z,0
2016-08-20T00:09:08.770Z,0
2016-08-20T00:10:20.331Z,0
2016-08-20T00:11:32.618Z,0
2016-08-20T00:12:44.191Z,0
2016-08-20T00:13:56.482Z,0
2016-08-20T00:15:08.034Z,0
2016-08-20T00:16:20.317Z,0
2016-08-20T00:17:32.609Z,0
2016-08-20T00:18:44.880Z,0
2016-08-20T00:19:57.155Z,0
2016-08-20T00:21:08.727Z,0
2016-08-20T00:22:20.290Z,0
2016-08-20T00:23:32.550Z,0
2016-08-20T00:24:43.422Z,0
2016-08-20T00:25:54.996Z,0
2016-08-20T00:27:05.138Z,0
2016-08-20T00:28:16.711Z,0
2016-08-20T00:29:28.285Z,0
2016-08-20T00:30:40.562Z,0
2016-08-20T00:31:50.729Z,0
2016-08-20T00:33:02.305Z,0
2016-08-20T00:34:13.867Z,0
2016-08-20T00:35:24.735Z,0
2016-08-20T00:36:37.007Z,0
2016-08-20T00:37:49.262Z,0
2016-08-20T00:39:01.514Z,0
2016-08-20T00:40:13.782Z,0
2016-08-20T00:41:25.343Z,0
2016-08-20T00:42:37.619Z,0
2016-08-20T00:43:49.187Z,0
2016-08-20T00:45:01.463Z,0
2016-08-20T00:46:13.025Z,0
2016-08-20T00:47:24.592Z,0
2016-08-20T00:48:36.160Z,0
2016-08-20T00:49:46.306Z,0
2016-08-20T00:50:57.879Z,0
2016-08-20T00:52:10.134Z,0
2016-08-20T00:53:21.696Z,0
2016-08-20T00:54:33.258Z,0
2016-08-20T00:55:44.851Z,0
2016-08-20T00:56:56.422Z,0
2016-08-20T00:58:07.983Z,0
2016-08-20T00:59:20.238Z,0
2016-08-20T01:00:30.393Z,0
2016-08-20T01:01:42.654Z,0
2016-08-20T01:02:54.920Z,0
2016-08-20T01:04:05.793Z,0
2016-08-20T01:05:17.365Z,0
2016-08-20T01:06:29.653Z,0
2016-08-20T01:07:40.519Z,0
2016-08-20T01:08:52.779Z,0
2016-08-20T01:10:05.068Z,0
2016-08-20T01:11:16.635Z,0
2016-08-20T01:12:28.206Z,0
2016-08-20T01:13:40.472Z,0
2016-08-20T01:14:51.330Z,0
2016-08-20T01:16:03.584Z,0
2016-08-20T01:17:14.457Z,0
2016-08-20T01:18:25.312Z,0
2016-08-20T01:19:34.775Z,0
2016-08-20T01:20:46.331Z,0
2016-08-20T01:21:57.893Z,0
2016-08-20T01:23:10.154Z,0
2016-08-20T01:24:21.011Z,0
2016-08-20T01:25:32.584Z,0
2016-08-20T01:26:44.851Z,0
2016-08-20T01:27:56.406Z,0
2016-08-20T01:29:08.687Z,0
2016-08-20T01:30:20.241Z,0
2016-08-20T01:31:31.817Z,0
2016-08-20T01:32:43.384Z,0
2016-08-20T01:33:54.953Z,0
2016-08-20T01:35:07.222Z,0
2016-08-20T01:36:19.484Z,0
2016-08-20T01:37:31.086Z,0
2016-08-20T01:38:42.658Z,0
2016-08-20T01:39:54.226Z,0
2016-08-20T01:41:06.481Z,0
2016-08-20T01:42:18.038Z,0
2016-08-20T01:43:28.205Z,0
2016-08-20T01:44:39.783Z,0
2016-08-20T01:45:52.055Z,0
2016-08-20T01:47:04.315Z,0
2016-08-20T01:48:15.186Z,0
2016-08-20T01:49:27.445Z,0
2016-08-20T01:50:39.712Z,0
2016-08-20T01:51:51.278Z,0
2016-08-20T01:53:02.847Z,0
2016-08-20T01:54:13.697Z,0
2016-08-20T01:55:25.971Z,0
2016-08-20T01:56:37.541Z,0
2016-08-20T01:57:48.416Z,0
2016-08-20T01:58:59.989Z,0
2016-08-20T02:00:12.244Z,0
2016-08-20T02:01:24.512Z,0
2016-08-20T02:02:35.373Z,0
2016-08-20T02:03:47.642Z,0
2016-08-20T02:04:59.927Z,0
2016-08-20T02:06:12.183Z,0
2016-08-20T02:07:23.746Z,0
2016-08-20T02:08:33.904Z,0
2016-08-20T02:09:46.173Z,0
2016-08-20T02:10:57.740Z,0
2016-08-20T02:12:07.894Z,0
2016-08-20T02:13:18.780Z,0
2016-08-20T02:14:30.346Z,0
2016-08-20T02:15:41.908Z,0
2016-08-20T02:16:54.184Z,0
2016-08-20T02:18:06.451Z,0
2016-08-20T02:19:18.729Z,0
2016-08-20T02:20:30.276Z,0
2016-08-20T02:21:41.837Z,0
2016-08-20T02:22:52.694Z,0
2016-08-20T02:24:04.251Z,0
2016-08-20T02:25:16.507Z,0
2016-08-20T02:26:28.081Z,0
2016-08-20T02:27:40.349Z,0
2016-08-20T02:28:52.613Z,0
2016-08-20T02:30:04.196Z,0
2016-08-20T02:31:16.467Z,0
2016-08-20T02:32:28.745Z,0
2016-08-20T02:33:40.321Z,0
2016-08-20T02:34:52.597Z,0
2016-08-20T02:36:04.864Z,0
2016-08-20T02:37:17.124Z,0
2016-08-20T02:38:27.983Z,0
2016-08-20T02:39:40.249Z,0
2016-08-20T02:40:52.505Z,0
2016-08-20T02:42:04.770Z,0
2016-08-20T02:43:17.026Z,0
2016-08-20T02:44:26.481Z,0
2016-08-20T02:45:38.047Z,0
2016-08-20T02:46:48.900Z,0
2016-08-20T02:48:01.151Z,0
2016-08-20T02:49:12.717Z,0
2016-08-20T02:50:25.008Z,0
2016-08-20T02:51:35.859Z,0
2016-08-20T02:52:47.418Z,0
2016-08-20T02:53:58.991Z,0
2016-08-20T02:55:10.548Z,0
2016-08-20T02:56:22.105Z,0
2016-08-20T02:57:32.966Z,0
2016-08-20T02:58:45.247Z,0
2016-08-20T02:59:57.522Z,0
2016-08-20T03:01:09.772Z,0
2016-08-20T03:02:22.034Z,0
2016-08-20T03:03:33.595Z,0
2016-08-20T03:04:45.163Z,0
2016-08-20T03:05:56.743Z,0
2016-08-20T03:07:07.610Z,0
2016-08-20T03:08:19.869Z,0
2016-08-20T03:09:31.434Z,0
2016-08-20T03:10:43.007Z,0
2016-08-20T03:11:54.582Z,0
2016-08-20T03:13:06.839Z,0
2016-08-20T03:14:18.386Z,0
2016-08-20T03:15:30.670Z,0
2016-08-20T03:16:41.528Z,0
2016-08-20T03:17:53.771Z,4
2016-08-20T03:19:06.037Z,4
2016-08-20T03:20:18.304Z,4
2016-08-20T03:21:29.860Z,0
2016-08-20T03:22:40.712Z,0
2016-08-20T03:23:52.994Z,4
2016-08-20T03:25:05.249Z,4
2016-08-20T03:26:16.122Z,4
2016-08-20T03:27:27.665Z,4
2016-08-20T03:28:39.927Z,4
2016-08-20T03:29:52.199Z,4
2016-08-20T03:31:03.050Z,8
2016-08-20T03:32:14.607Z,8
2016-08-20T03:33:26.879Z,8
2016-08-20T03:34:39.161Z,16
2016-08-20T03:35:49.322Z,16
2016-08-20T03:37:01.611Z,20
2016-08-20T03:38:11.770Z,24
2016-08-20T03:39:24.056Z,28
2016-08-20T03:40:35.626Z,32
2016-08-20T03:41:47.185Z,40
2016-08-20T03:42:58.051Z,44
2016-08-20T03:44:10.299Z,56
2016-08-20T03:45:22.566Z,64
2016-08-20T03:46:34.824Z,72
2016-08-20T03:47:46.615Z,84
2016-08-20T03:48:58.176Z,100
2016-08-20T03:50:10.434Z,116
2016-08-20T03:51:22.701Z,132
2016-08-20T03:52:34.242Z,148
2016-08-20T03:53:45.804Z,168
2016-08-20T03:54:57.373Z,192
2016-08-20T03:56:08.943Z,220
2016-08-20T03:57:20.503Z,248
2016-08-20T03:58:32.772Z,272
2016-08-20T03:59:45.050Z,304
2016-08-20T04:00:57.316Z,340
2016-08-20T04:02:08.166Z,372
2016-08-20T04:03:19.028Z,408
2016-08-20T04:04:31.279Z,444
2016-08-20T04:05:41.438Z,484
2016-08-20T04:06:53.699Z,528
2016-08-20T04:08:05.987Z,568
2016-08-20T04:09:18.259Z,616
2016-08-20T04:10:29.118Z,664
2016-08-20T04:11:41.392Z,712
2016-08-20T04:12:52.949Z,756
2016-08-20T04:14:05.208Z,792
2016-08-20T04:15:17.476Z,840
2016-08-20T04:16:29.023Z,892
2016-08-20T04:17:40.580Z,940
2016-08-20T04:18:52.846Z,980
2016-08-20T04:20:05.129Z,1012
2016-08-20T04:21:16.706Z,1040
2016-08-20T04:22:28.975Z,1064
2016-08-20T04:23:40.533Z,1100
2016-08-20T04:24:52.086Z,1072
2016-08-20T04:26:03.695Z,1092
2016-08-20T04:27:15.959Z,1092
2016-08-20T04:28:27.540Z,1080
2016-08-20T04:29:39.807Z,1124
2016-08-20T04:30:52.058Z,1176
2016-08-20T04:32:02.220Z,1116
2016-08-20T04:33:14.491Z,1068
2016-08-20T04:34:26.045Z,1108
2016-08-20T04:35:38.305Z,1216
2016-08-20T04:36:50.578Z,1372
2016-08-20T04:38:02.155Z,1448
2016-08-20T04:39:13.708Z,1252
2016-08-20T04:40:25.968Z,1324
2016-08-20T04:41:37.526Z,1440
2016-08-20T04:42:48.386Z,1468
2016-08-20T04:44:00.635Z,1396
2016-08-20T04:45:10.803Z,1304
2016-08-20T04:46:20.967Z,1200
2016-08-20T04:47:31.134Z,1124
2016-08-20T04:48:42.704Z,1172
2016-08-20T04:49:54.272Z,1212
2016-08-20T04:51:05.837Z,1232
2016-08-20T04:52:17.383Z,1280
2016-08-20T04:53:28.937Z,1328
2016-08-20T04:54:40.513Z,1316
2016-08-20T04:55:52.782Z,1364
2016-08-20T04:57:05.052Z,1404
2016-08-20T04:58:17.324Z,1388
2016-08-20T04:59:28.195Z,1404
2016-08-20T05:00:39.744Z,1392
2016-08-20T05:01:50.604Z,1344
2016-08-20T05:03:02.161Z,1388
2016-08-20T05:04:14.447Z,1456
2016-08-20T05:05:26.741Z,1432
2016-08-20T05:06:36.903Z,1500
2016-08-20T05:07:48.478Z,1544
2016-08-20T05:09:00.031Z,1592
2016-08-20T05:10:12.312Z,1588
2016-08-20T05:11:23.885Z,1596
2016-08-20T05:12:36.135Z,1600
2016-08-20T05:13:46.302Z,1496
2016-08-20T05:14:57.880Z,1504
2016-08-20T05:16:08.046Z,1664
2016-08-20T05:17:20.318Z,1744
2016-08-20T05:18:31.904Z,1840
2016-08-20T05:19:43.470Z,1768
2016-08-20T05:20:55.727Z,1620
2016-08-20T05:22:07.284Z,1704
2016-08-20T05:23:17.442Z,1828
2016-08-20T05:24:29.724Z,1716
2016-08-20T05:25:41.286Z,1448
2016-08-20T05:26:52.836Z,1160
2016-08-20T05:28:04.409Z,1552
2016-08-20T05:29:16.660Z,1800
2016-08-20T05:30:28.917Z,2240
2016-08-20T05:31:41.173Z,2204
2016-08-20T05:32:53.451Z,2268
2016-08-20T05:34:05.748Z,2332
2016-08-20T05:35:17.294Z,2364
2016-08-20T05:36:28.141Z,2344
2016-08-20T05:37:40.405Z,2284
2016-08-20T05:38:52.676Z,2292
2016-08-20T05:40:04.239Z,2340
2016-08-20T05:41:15.798Z,2240
2016-08-20T05:42:28.089Z,2332
2016-08-20T05:43:40.361Z,2332
2016-08-20T05:44:52.619Z,2432
2016-08-20T05:46:04.182Z,2460
2016-08-20T05:47:15.742Z,2508
2016-08-20T05:48:28.008Z,2612
2016-08-20T05:49:38.865Z,2952
2016-08-20T05:50:50.428Z,3124
2016-08-20T05:52:01.995Z,3356
2016-08-20T05:53:13.552Z,3360
2016-08-20T05:54:25.123Z,3336
2016-08-20T05:55:35.994Z,3396
2016-08-20T05:56:48.250Z,3444
2016-08-20T05:57:59.853Z,3616
2016-08-20T05:59:10.734Z,3884
2016-08-20T06:00:23.024Z,4108
2016-08-20T06:01:34.594Z,4260
2016-08-20T06:02:46.159Z,4548
2016-08-20T06:03:57.732Z,4532
2016-08-20T06:05:09.294Z,4564
2016-08-20T06:06:21.554Z,4540
2016-08-20T06:07:33.112Z,5420
2016-08-20T06:08:43.986Z,5560
2016-08-20T06:09:56.265Z,5484
2016-08-20T06:11:07.140Z,5696
2016-08-20T06:12:19.394Z,6144
2016-08-20T06:13:30.955Z,5452
2016-08-20T06:14:43.225Z,4624
2016-08-20T06:15:54.791Z,4976
2016-08-20T06:17:06.351Z,5776
2016-08-20T06:18:17.928Z,6164
2016-08-20T06:19:29.494Z,6308
2016-08-20T06:20:41.770Z,6224
2016-08-20T06:21:53.353Z,6884
2016-08-20T06:23:05.630Z,7176
2016-08-20T06:24:16.501Z,7156
2016-08-20T06:25:28.768Z,6812
2016-08-20T06:26:41.036Z,6712
2016-08-20T06:27:52.605Z,6552
2016-08-20T06:29:03.469Z,6600
2016-08-20T06:30:15.743Z,7344
2016-08-20T06:31:27.332Z,8004
2016-08-20T06:32:37.490Z,7876
2016-08-20T06:33:49.756Z,7528
2016-08-20T06:35:02.015Z,6244
2016-08-20T06:36:13.585Z,5012
2016-08-20T06:37:25.846Z,4680
2016-08-20T06:38:38.108Z,4464
2016-08-20T06:39:50.369Z,4392
2016-08-20T06:41:02.653Z,4124
2016-08-20T06:42:14.218Z,4076
2016-08-20T06:43:25.793Z,4260
2016-08-20T06:44:36.652Z,4312
2016-08-20T06:45:48.213Z,4272
2016-08-20T06:46:59.071Z,4084
2016-08-20T06:48:10.628Z,4080
2016-08-20T06:49:21.499Z,4272
2016-08-20T06:50:33.059Z,4144
2016-08-20T06:51:44.631Z,3984
2016-08-20T06:52:56.206Z,4056
2016-08-20T06:54:07.066Z,4180
2016-08-20T06:55:18.618Z,4048
2016-08-20T06:56:30.869Z,4028
2016-08-20T06:57:43.143Z,4152
2016-08-20T06:58:55.402Z,4284
2016-08-20T07:00:06.960Z,4112
2016-08-20T07:01:19.226Z,3916
2016-08-20T07:02:31.495Z,3872
2016-08-20T07:03:40.949Z,3824
2016-08-20T07:04:53.222Z,4052
2016-08-20T07:06:05.487Z,4304
2016-08-20T07:07:17.746Z,4448
2016-08-20T07:08:28.602Z,4544
2016-08-20T07:09:40.871Z,4576
2016-08-20T07:10:52.444Z,4648
2016-08-20T07:12:04.006Z,4916
2016-08-20T07:13:16.285Z,5200
2016-08-20T07:14:28.552Z,5484
2016-08-20T07:15:38.713Z,5556
2016-08-20T07:16:50.291Z,5540
2016-08-20T07:18:02.553Z,5320
2016-08-20T07:19:14.830Z,5332
2016-08-20T07:20:27.094Z,5452
2016-08-20T07:21:38.662Z,5744
2016-08-20T07:22:50.957Z,5852
2016-08-20T07:24:02.523Z,5932
2016-08-20T07:25:14.775Z,6080
2016-08-20T07:26:26.350Z,6240
2016-08-20T07:27:38.615Z,6380
2016-08-20T07:28:50.894Z,6468
2016-08-20T07:30:03.160Z,6452
2016-08-20T07:31:15.420Z,6588
2016-08-20T07:32:27.683Z,6736
2016-08-20T07:33:39.250Z,6692
2016-08-20T07:34:51.547Z,7020
2016-08-20T07:36:03.831Z,7456
2016-08-20T07:37:15.382Z,7648
2016-08-20T07:38:26.965Z,7816
2016-08-20T07:39:38.539Z,7724
2016-08-20T07:40:50.102Z,7428
2016-08-20T07:42:02.371Z,7340
2016-08-20T07:43:14.657Z,7740
2016-08-20T07:44:26.222Z,8260
2016-08-20T07:45:38.502Z,8720
2016-08-20T07:46:50.076Z,8936
2016-08-20T07:48:01.651Z,9056
2016-08-20T07:49:13.232Z,9264
2016-08-20T07:50:25.500Z,9704
2016-08-20T07:51:37.764Z,9972
2016-08-20T07:52:50.039Z,10228
2016-08-20T07:54:02.318Z,10276
2016-08-20T07:55:14.591Z,10160
2016-08-20T07:56:26.854Z,9728
2016-08-20T07:57:38.444Z,9508
2016-08-20T07:58:50.733Z,9660
2016-08-20T08:00:02.355Z,9720
2016-08-20T08:01:14.084Z,9276
2016-08-20T08:02:26.361Z,8884
2016-08-20T08:03:38.663Z,8404
2016-08-20T08:04:50.251Z,8384
2016-08-20T08:06:01.839Z,8196
2016-08-20T08:07:14.123Z,7888
2016-08-20T08:08:26.417Z,7836
2016-08-20T08:09:38.688Z,7460
2016-08-20T08:10:50.996Z,7004
2016-08-20T08:12:03.277Z,6820
2016-08-20T08:13:15.539Z,6656
2016-08-20T08:14:27.815Z,6476
2016-08-20T08:15:39.397Z,6316
2016-08-20T08:16:51.679Z,6176
2016-08-20T08:18:03.952Z,6216
2016-08-20T08:19:16.232Z,6268
2016-08-20T08:20:28.530Z,6324
2016-08-20T08:21:40.845Z,6428
2016-08-20T08:22:51.764Z,6928
2016-08-20T08:24:04.045Z,7420
2016-08-20T08:25:16.332Z,7816
2016-08-20T08:26:27.910Z,8012
2016-08-20T08:27:40.179Z,8976
2016-08-20T08:28:52.467Z,9904
2016-08-20T08:30:04.753Z,9832
2016-08-20T08:31:16.361Z,10004
2016-08-20T08:32:28.637Z,9884
2016-08-20T08:33:40.229Z,9048
2016-08-20T08:34:51.106Z,8396
2016-08-20T08:36:03.381Z,7588
2016-08-20T08:37:15.658Z,7420
2016-08-20T08:38:27.926Z,7744
2016-08-20T08:39:40.260Z,8232
2016-08-20T08:40:51.903Z,7564
2016-08-20T08:42:03.461Z,8288
2016-08-20T08:43:15.046Z,8160
2016-08-20T08:44:26.620Z,10452
2016-08-20T08:45:36.097Z,8804
2016-08-20T08:46:47.677Z,10084
2016-08-20T08:47:59.265Z,9172
2016-08-20T08:49:11.537Z,10336
2016-08-20T08:50:23.128Z,10788
2016-08-20T08:51:34.748Z,10296
2016-08-20T08:52:47.047Z,9756
2016-08-20T08:53:59.340Z,9664
2016-08-20T08:55:11.634Z,10364
2016-08-20T08:56:23.231Z,10948
2016-08-20T08:57:35.504Z,10304
2016-08-20T08:58:47.780Z,10852
2016-08-20T08:59:59.353Z,9300
2016-08-20T09:01:11.909Z,8584
2016-08-20T09:02:24.195Z,6444
2016-08-20T09:03:36.471Z,6028
2016-08-20T09:04:48.749Z,6108
2016-08-20T09:06:01.051Z,6208
2016-08-20T09:07:11.918Z,6500
2016-08-20T09:08:23.515Z,6808
2016-08-20T09:09:35.088Z,6824
2016-08-20T09:10:46.180Z,6896
2016-08-20T09:11:57.754Z,7496
2016-08-20T09:13:09.342Z,6996
2016-08-20T09:14:21.668Z,7020
2016-08-20T09:15:33.244Z,6388
2016-08-20T09:16:44.123Z,6812
2016-08-20T09:17:56.403Z,7128
2016-08-20T09:19:07.995Z,7200
2016-08-20T09:20:19.577Z,9068
2016-08-20T09:21:31.165Z,10304
2016-08-20T09:22:43.576Z,10600
2016-08-20T09:23:55.180Z,9180
2016-08-20T09:25:07.460Z,10408
2016-08-20T09:26:19.755Z,10472
2016-08-20T09:27:31.331Z,8012
2016-08-20T09:28:43.639Z,9732
2016-08-20T09:29:55.926Z,6972
2016-08-20T09:31:07.525Z,7008
2016-08-20T09:32:19.112Z,7104
2016-08-20T09:33:29.995Z,10188
2016-08-20T09:34:42.269Z,8360
2016-08-20T09:35:54.546Z,8696
2016-08-20T09:37:05.426Z,7828
2016-08-20T09:38:17.053Z,7316
2016-08-20T09:39:29.354Z,7632
2016-08-20T09:40:40.942Z,7736
2016-08-20T09:41:53.225Z,9200
2016-08-20T09:43:04.802Z,8072
2016-08-20T09:44:17.074Z,7472
2016-08-20T09:45:29.357Z,8600
2016-08-20T09:46:40.947Z,7556
2016-08-20T09:47:52.523Z,7608
2016-08-20T09:49:04.816Z,7684
2016-08-20T09:50:15.691Z,8352
2016-08-20T09:51:27.280Z,7756
2016-08-20T09:52:38.860Z,8304
2016-08-20T09:53:50.442Z,9240
2016-08-20T09:55:02.719Z,9584
2016-08-20T09:56:14.298Z,8668
2016-08-20T09:57:25.878Z,8528
2016-08-20T09:58:38.185Z,9936
2016-08-20T09:59:49.783Z,11568
2016-08-20T10:01:01.368Z,9040
2016-08-20T10:02:13.670Z,9136
2016-08-20T10:03:25.966Z,9220
2016-08-20T10:04:37.696Z,9532
2016-08-20T10:05:49.375Z,10164
2016-08-20T10:07:01.187Z,9776
2016-08-20T10:08:12.772Z,11084
2016-08-20T10:09:23.649Z,10520
2016-08-20T10:10:35.266Z,10544
2016-08-20T10:11:46.863Z,9728
2016-08-20T10:12:59.149Z,9396
2016-08-20T10:14:10.022Z,10468
2016-08-20T10:15:20.910Z,10540
2016-08-20T10:16:33.199Z,8840
2016-08-20T10:17:44.096Z,9380
2016-08-20T10:18:55.665Z,9160
2016-08-20T10:20:08.003Z,9972
2016-08-20T10:21:18.883Z,8568
2016-08-20T10:22:29.756Z,8752
2016-08-20T10:23:41.344Z,8508
2016-08-20T10:24:53.638Z,8532
2016-08-20T10:26:05.470Z,8708
2016-08-20T10:27:17.768Z,9192
2016-08-20T10:28:30.066Z,9156
2016-08-20T10:29:40.960Z,10764
2016-08-20T10:30:51.842Z,12040
2016-08-20T10:32:04.128Z,11408
2016-08-20T10:33:15.710Z,9432
2016-08-20T10:34:25.890Z,9372
2016-08-20T10:35:37.472Z,8124
2016-08-20T10:37:58.787Z,7828
2016-08-20T10:39:11.078Z,7944
2016-08-20T10:40:22.690Z,8116
2016-08-20T10:41:34.272Z,8436
2016-08-20T10:42:46.542Z,8768
2016-08-20T10:43:57.434Z,8508
2016-08-20T10:45:09.732Z,8396
2016-08-20T10:46:21.325Z,8496
2016-08-20T10:47:32.194Z,8428
2016-08-20T10:48:44.473Z,9064
2016-08-20T10:49:56.771Z,8140
2016-08-20T10:51:09.046Z,9532
2016-08-20T10:52:21.353Z,10708
2016-08-20T10:53:32.941Z,9896
2016-08-20T10:54:43.824Z,10880
2016-08-20T10:55:55.394Z,10464
2016-08-20T10:57:07.694Z,10028
2016-08-20T10:58:19.297Z,10004
2016-08-20T10:59:31.599Z,10996
2016-08-20T11:00:43.892Z,10160
2016-08-20T11:01:54.777Z,8016
2016-08-20T11:03:05.690Z,11504
2016-08-20T11:04:16.570Z,9156
2016-08-20T11:05:28.168Z,9380
2016-08-20T11:06:40.475Z,11604
2016-08-20T11:07:52.042Z,11548
2016-08-20T11:09:04.303Z,11392
2016-08-20T11:10:15.882Z,11000
2016-08-20T11:11:28.152Z,10948
2016-08-20T11:12:40.440Z,10676
2016-08-20T11:13:52.714Z,10404
2016-08-20T11:15:05.003Z,10168
2016-08-20T11:16:16.594Z,9988
2016-08-20T11:17:27.490Z,9800
2016-08-20T11:18:39.089Z,9628
2016-08-20T11:19:51.380Z,9456
2016-08-20T11:21:01.557Z,9284
2016-08-20T11:22:13.136Z,9084
2016-08-20T11:23:24.725Z,8980
2016-08-20T11:24:36.993Z,8872
2016-08-20T11:25:48.570Z,8792
2016-08-20T11:27:00.842Z,8712
2016-08-20T11:28:13.117Z,8700
2016-08-20T11:29:24.684Z,8604
2016-08-20T11:30:36.259Z,8628
2016-08-20T11:31:48.552Z,8668
2016-08-20T11:33:00.850Z,8644
2016-08-20T11:34:12.440Z,8688
2016-08-20T11:35:24.723Z,8608
2016-08-20T11:36:36.289Z,8608
2016-08-20T11:37:48.609Z,8556
2016-08-20T11:39:00.897Z,8656
2016-08-20T11:40:13.171Z,8696
2016-08-20T11:41:25.467Z,8640
2016-08-20T11:42:36.339Z,8680
2016-08-20T11:43:48.631Z,8728
2016-08-20T11:45:00.911Z,8756
2016-08-20T11:46:12.513Z,8784
2016-08-20T11:47:24.122Z,8792
2016-08-20T11:48:36.430Z,8776
2016-08-20T11:49:48.010Z,8912
2016-08-20T11:50:58.877Z,8976
2016-08-20T11:52:10.468Z,8956
2016-08-20T11:53:22.756Z,8940
2016-08-20T11:54:35.037Z,9064
2016-08-20T11:55:47.327Z,9120
2016-08-20T11:56:59.665Z,9164
2016-08-20T11:58:11.960Z,9192
2016-08-20T11:59:22.133Z,9272
2016-08-20T12:00:33.731Z,9268
2016-08-20T12:01:45.317Z,9256
2016-08-20T12:02:56.880Z,9204
2016-08-20T12:04:08.462Z,9248
2016-08-20T12:05:20.045Z,9200
2016-08-20T12:06:31.643Z,9264
2016-08-20T12:07:43.942Z,9240
2016-08-20T12:08:54.820Z,9180
2016-08-20T12:10:06.395Z,9264
2016-08-20T12:11:18.697Z,9296
2016-08-20T12:12:31.069Z,9348
2016-08-20T12:13:43.600Z,9276
2016-08-20T12:14:54.479Z,9188
2016-08-20T12:16:05.389Z,9216
2016-08-20T12:17:16.965Z,9088
2016-08-20T12:18:27.858Z,9056
2016-08-20T12:19:40.154Z,8992
2016-08-20T12:20:49.610Z,8980
2016-08-20T12:22:01.912Z,8932
2016-08-20T12:23:14.198Z,8920
2016-08-20T12:24:25.782Z,8916
2016-08-20T12:25:38.088Z,8940
2016-08-20T12:26:48.979Z,9024
2016-08-20T12:28:00.568Z,8940
2016-08-20T12:29:10.759Z,8908
2016-08-20T12:30:21.631Z,8912
2016-08-20T12:31:33.211Z,8912
2016-08-20T12:32:44.780Z,8916
2016-08-20T12:33:56.362Z,8884
2016-08-20T12:35:06.533Z,8856
2016-08-20T12:36:17.402Z,8812
2016-08-20T12:37:28.986Z,8752
2016-08-20T12:38:40.575Z,8764
2016-08-20T12:39:52.148Z,8744
2016-08-20T12:41:04.426Z,8712
2016-08-20T12:42:15.994Z,8704
2016-08-20T12:43:28.288Z,8612
2016-08-20T12:44:39.866Z,8516
2016-08-20T12:45:51.425Z,8452
2016-08-20T12:47:03.710Z,8444
2016-08-20T12:48:15.293Z,8300
2016-08-20T12:49:26.910Z,8452
2016-08-20T12:50:38.745Z,8452
2016-08-20T12:51:51.058Z,8528
2016-08-20T12:53:02.641Z,8396
2016-08-20T12:54:14.220Z,8376
2016-08-20T12:55:25.077Z,8240
2016-08-20T12:56:36.645Z,8248
2016-08-20T12:57:48.231Z,8200
2016-08-20T12:59:00.534Z,8208
2016-08-20T13:00:12.117Z,8188
2016-08-20T13:01:23.698Z,8076
2016-08-20T13:02:35.289Z,8100
2016-08-20T13:03:47.592Z,7988
2016-08-20T13:04:58.474Z,8028
2016-08-20T13:06:10.049Z,8028
2016-08-20T13:07:22.338Z,8016
2016-08-20T13:08:34.597Z,8044
2016-08-20T13:09:46.881Z,8052
2016-08-20T13:10:58.463Z,8028
2016-08-20T13:12:10.733Z,7980
2016-08-20T13:13:23.040Z,7900
2016-08-20T13:14:35.321Z,7928
2016-08-20T13:15:46.893Z,7884
2016-08-20T13:16:57.760Z,7904
2016-08-20T13:18:09.343Z,7892
2016-08-20T13:19:20.920Z,7820
2016-08-20T13:20:33.195Z,7776
2016-08-20T13:21:44.762Z,7760
2016-08-20T13:22:56.346Z,7664
2016-08-20T13:24:07.942Z,7440
2016-08-20T13:25:19.539Z,7792
2016-08-20T13:26:31.115Z,7836
2016-08-20T13:27:43.402Z,7776
2016-08-20T13:28:54.957Z,7812
2016-08-20T13:30:05.860Z,7776
2016-08-20T13:31:16.044Z,7760
2016-08-20T13:32:28.313Z,7728
2016-08-20T13:33:39.914Z,7652
2016-08-20T13:34:52.191Z,7648
2016-08-20T13:36:03.763Z,7684
2016-08-20T13:37:16.052Z,7636
2016-08-20T13:38:27.620Z,7544
2016-08-20T13:39:39.908Z,7324
2016-08-20T13:40:50.781Z,7460
2016-08-20T13:42:02.351Z,7072
2016-08-20T13:43:14.680Z,7200
2016-08-20T13:44:26.513Z,7000
2016-08-20T13:45:38.807Z,6620
2016-08-20T13:46:50.434Z,6636
2016-08-20T13:48:02.007Z,7100
2016-08-20T13:49:13.578Z,6640
2016-08-20T13:50:25.245Z,6980
2016-08-20T13:51:37.543Z,6896
2016-08-20T13:52:49.834Z,6976
2016-08-20T13:54:01.415Z,7368
2016-08-20T13:55:13.691Z,7384
2016-08-20T13:56:23.893Z,7484
2016-08-20T13:57:36.169Z,7320
2016-08-20T13:58:48.445Z,7308
2016-08-20T14:00:00.739Z,7128
2016-08-20T14:01:13.021Z,6936
2016-08-20T14:02:23.884Z,6752
2016-08-20T14:03:34.759Z,7032
2016-08-20T14:04:45.631Z,7392
2016-08-20T14:05:56.506Z,7328
2016-08-20T14:07:07.379Z,7368
2016-08-20T14:08:18.970Z,7316
2016-08-20T14:09:30.544Z,6532
2016-08-20T14:10:42.846Z,6752
2016-08-20T14:11:55.115Z,7124
2016-08-20T14:13:07.424Z,7264
2016-08-20T14:14:18.295Z,7228
2016-08-20T14:15:30.579Z,7256
2016-08-20T14:16:42.850Z,7272
2016-08-20T14:17:55.125Z,7336
2016-08-20T14:19:06.720Z,7184
2016-08-20T14:20:19.014Z,7296
2016-08-20T14:21:30.594Z,7284
2016-08-20T14:22:42.184Z,7436
2016-08-20T14:23:54.460Z,7336
2016-08-20T14:25:08.288Z,7496
2016-08-20T14:26:21.910Z,7580
2016-08-20T14:27:34.539Z,7572
2016-08-20T14:28:50.855Z,7500
2016-08-20T14:30:06.387Z,7344
2016-08-20T14:31:17.251Z,6996
2016-08-20T14:32:28.831Z,6444
2016-08-20T14:33:40.393Z,5824
2016-08-20T14:34:58.246Z,5000
2016-08-20T14:36:16.082Z,4496
2016-08-20T14:37:28.630Z,4700
2016-08-20T14:38:40.705Z,4820
2016-08-20T14:39:54.107Z,5732
2016-08-20T14:41:06.851Z,5804
2016-08-20T14:42:18.420Z,5968
2016-08-20T14:43:32.913Z,6732
2016-08-20T14:44:46.787Z,6716
2016-08-20T14:45:56.969Z,6736
2016-08-20T14:47:12.270Z,6900
2016-08-20T14:48:24.555Z,6872
2016-08-20T14:49:36.831Z,6776
2016-08-20T14:50:49.109Z,6704
2016-08-20T14:51:59.261Z,6688
2016-08-20T14:53:10.137Z,6468
2016-08-20T14:54:22.423Z,6332
2016-08-20T14:55:34.007Z,6408
2016-08-20T14:56:45.580Z,6244
2016-08-20T14:57:57.159Z,6128
2016-08-20T14:59:08.735Z,6028
2016-08-20T15:00:20.307Z,6032
2016-08-20T15:01:30.470Z,6004
2016-08-20T15:02:41.348Z,5880
2016-08-20T15:03:53.631Z,5872
2016-08-20T15:05:03.814Z,5844
2016-08-20T15:06:15.387Z,5852
2016-08-20T15:07:26.985Z,5860
2016-08-20T15:08:39.300Z,5716
2016-08-20T15:09:51.581Z,5496
2016-08-20T15:11:03.851Z,5248
2016-08-20T15:12:15.422Z,4732
2016-08-20T15:13:27.722Z,4320
2016-08-20T15:14:38.608Z,4780
2016-08-20T15:15:50.205Z,4824
2016-08-20T15:17:02.478Z,4768
2016-08-20T15:18:14.740Z,2976
2016-08-20T15:19:27.034Z,2964
2016-08-20T15:20:38.598Z,2800
2016-08-20T15:21:50.874Z,4468
2016-08-20T15:23:01.751Z,4272
2016-08-20T15:24:13.339Z,4792
2016-08-20T15:25:24.902Z,4912
2016-08-20T15:26:35.771Z,5036
2016-08-20T15:27:46.646Z,4872
2016-08-20T15:28:58.920Z,4788
2016-08-20T15:30:10.499Z,4684
2016-08-20T15:31:22.084Z,4088
2016-08-20T15:32:34.364Z,4260
2016-08-20T15:33:45.958Z,4176
2016-08-20T15:34:58.243Z,3784
2016-08-20T15:36:09.824Z,4428
2016-08-20T15:37:22.111Z,4564
2016-08-20T15:38:33.000Z,4628
2016-08-20T15:39:44.576Z,4740
2016-08-20T15:40:55.453Z,4616
2016-08-20T15:42:07.035Z,4632
2016-08-20T15:43:18.636Z,4576
2016-08-20T15:44:30.920Z,4428
2016-08-20T15:45:43.192Z,4340
2016-08-20T15:46:53.358Z,4500
2016-08-20T15:48:05.671Z,4548
2016-08-20T15:49:17.250Z,4468
2016-08-20T15:50:29.523Z,4400
2016-08-20T15:51:41.799Z,4280
2016-08-20T15:52:53.369Z,4140
2016-08-20T15:54:05.658Z,3948
2016-08-20T15:55:17.248Z,3736
2016-08-20T15:56:28.821Z,3476
2016-08-20T15:57:40.393Z,3072
2016-08-20T15:58:52.661Z,2984
2016-08-20T16:00:03.545Z,2956
2016-08-20T16:01:15.118Z,2968
2016-08-20T16:02:26.690Z,3036
2016-08-20T16:03:37.592Z,3104
2016-08-20T16:04:49.180Z,3044
2016-08-20T16:06:00.051Z,3036
2016-08-20T16:07:11.617Z,3056
2016-08-20T16:08:23.912Z,3068
2016-08-20T16:09:35.499Z,3064
2016-08-20T16:10:47.777Z,2932
2016-08-20T16:11:59.349Z,2856
2016-08-20T16:13:10.910Z,2724
2016-08-20T16:14:22.491Z,2608
2016-08-20T16:15:34.084Z,2544
2016-08-20T16:16:46.360Z,2504
2016-08-20T16:17:57.245Z,2472